Time;durP1;ratioP1;P1;durP2;ratioP2;P2;SDS_P1;SDS_P2;PMS_P1;PMS_P2;Temp;Humidity;BMP_temperature;BMP_pressure;BME280_temperature;BME280_humidity;BME280_pressure;Samples;Min_cycle;Max_cycle;Signal;HPM_P1;HPM_P2
2023/10/24 00:00:10;;;;;;;19.13;10.45;;;;;;;;;;4997682;28;20018;-37
2023/10/24 00:02:36;;;;;;;20.25;11.70;;;;;;;;;;4999390;28;20473;-39
2023/10/24 00:05:01;;;;;;;26.40;12.00;;;;;;;;;;5006557;28;20018;-39
2023/10/24 00:07:26;;;;;;;20.00;11.73;;;;;;;;;;5003766;28;20331;-37
2023/10/24 00:09:52;;;;;;;21.10;10.18;;;;;;;;;;5002963;28;20279;-38
2023/10/24 00:12:17;;;;;;;20.63;11.52;;;;;;;;;;5004582;28;20033;-40
2023/10/24 00:14:42;;;;;;;19.70;11.68;;;;;;;;;;5003392;28;20070;-39
2023/10/24 00:17:07;;;;;;;22.60;10.85;;;;;;;;;;5005427;28;20504;-38
2023/10/24 00:19:33;;;;;;;18.37;9.80;;;;;;;;;;4997409;28;20743;-37
2023/10/24 00:21:58;;;;;;;21.77;10.17;;;;;;;;;;4998298;28;20311;-38
2023/10/24 00:24:25;;;;;;;20.13;11.60;;;;;;;;;;5002868;28;20281;-36
2023/10/24 00:26:51;;;;;;;16.40;9.90;;;;;;;;;;5003772;28;20898;-39
2023/10/24 00:29:16;;;;;;;23.38;10.52;;;;;;;;;;5004308;28;20113;-37
2023/10/24 00:31:41;;;;;;;18.75;10.10;;;;;;;;;;5003991;28;20033;-38
2023/10/24 00:34:09;;;;;;;17.20;10.70;;;;;;;;;;5006689;28;20030;-39
2023/10/24 00:36:34;;;;;;;21.20;10.45;;;;;;;;;;5003659;28;20037;-38
2023/10/24 00:38:59;;;;;;;18.53;9.60;;;;;;;;;;4995337;28;20032;-39
2023/10/24 00:41:25;;;;;;;21.63;9.77;;;;;;;;;;4998332;28;21190;-38
2023/10/24 00:43:50;;;;;;;19.60;11.67;;;;;;;;;;5006756;28;20349;-40
2023/10/24 00:46:15;;;;;;;18.73;10.50;;;;;;;;;;5001876;28;20328;-39
2023/10/24 00:48:41;;;;;;;23.15;9.75;;;;;;;;;;5003092;28;20355;-38
2023/10/24 00:51:06;;;;;;;16.10;9.48;;;;;;;;;;5000805;28;20049;-39
2023/10/24 00:53:32;;;;;;;16.33;9.50;;;;;;;;;;5004876;28;20504;-39
2023/10/24 00:55:58;;;;;;;16.17;9.23;;;;;;;;;;5004423;28;20289;-38
2023/10/24 00:58:23;;;;;;;17.98;8.93;;;;;;;;;;4997997;28;20033;-37
2023/10/24 01:00:49;;;;;;;20.33;10.20;;;;;;;;;;4999547;28;20018;-39
2023/10/24 01:03:14;;;;;;;18.10;9.25;;;;;;;;;;5004773;28;20022;-39
2023/10/24 01:05:40;;;;;;;21.30;11.32;;;;;;;;;;5001154;28;20043;-38
2023/10/24 01:08:05;;;;;;;19.35;8.90;;;;;;;;;;5002734;28;20034;-39
2023/10/24 01:10:31;;;;;;;18.95;9.27;;;;;;;;;;5007177;28;20032;-39
2023/10/24 01:12:56;;;;;;;16.73;8.97;;;;;;;;;;5004637;28;20030;-39
2023/10/24 01:15:21;;;;;;;18.67;9.98;;;;;;;;;;5006210;28;20768;-39
2023/10/24 01:17:50;;;;;;;19.07;9.60;;;;;;;;;;5001943;28;20018;-39
2023/10/24 01:20:15;;;;;;;22.08;10.00;;;;;;;;;;5003562;28;20304;-40
2023/10/24 01:22:42;;;;;;;16.23;8.73;;;;;;;;;;4997714;28;20018;-40
2023/10/24 01:25:10;;;;;;;18.15;9.38;;;;;;;;;;5004685;28;20029;-39
2023/10/24 01:27:36;;;;;;;14.98;9.55;;;;;;;;;;5004876;28;20022;-39
2023/10/24 01:30:01;;;;;;;18.58;10.55;;;;;;;;;;4998891;28;20022;-39
2023/10/24 01:32:30;;;;;;;14.45;8.90;;;;;;;;;;5004981;28;20018;-38
2023/10/24 01:34:55;;;;;;;16.23;9.27;;;;;;;;;;5001475;28;21651;-38
2023/10/24 01:37:20;;;;;;;15.90;8.55;;;;;;;;;;5004850;28;20098;-40
2023/10/24 01:39:46;;;;;;;16.20;10.70;;;;;;;;;;4994108;28;20033;-40
2023/10/24 01:42:11;;;;;;;16.47;9.90;;;;;;;;;;5001514;28;20033;-38
2023/10/24 01:44:36;;;;;;;19.37;11.17;;;;;;;;;;5001962;28;20273;-39
2023/10/24 01:47:01;;;;;;;14.17;9.30;;;;;;;;;;5005185;28;20344;-39
2023/10/24 01:49:27;;;;;;;17.90;9.05;;;;;;;;;;5002099;28;20352;-38
2023/10/24 01:51:52;;;;;;;23.27;9.95;;;;;;;;;;5005813;28;20058;-38
2023/10/24 01:54:18;;;;;;;15.95;9.82;;;;;;;;;;5003920;28;20041;-39
2023/10/24 01:56:43;;;;;;;18.42;10.60;;;;;;;;;;4998831;28;20037;-38
2023/10/24 01:59:08;;;;;;;17.55;9.45;;;;;;;;;;4993556;28;20358;-40
2023/10/24 02:01:34;;;;;;;17.02;9.15;;;;;;;;;;4995672;28;20049;-37
2023/10/24 02:04:00;;;;;;;16.63;9.80;;;;;;;;;;5000711;28;20519;-40
2023/10/24 02:06:25;;;;;;;15.20;9.60;;;;;;;;;;5001677;28;20376;-39
2023/10/24 02:08:50;;;;;;;16.83;10.32;;;;;;;;;;4999525;28;20041;-39
2023/10/24 02:11:15;;;;;;;14.87;9.00;;;;;;;;;;5000253;28;20037;-38
2023/10/24 02:13:41;;;;;;;18.50;9.37;;;;;;;;;;5001809;28;20273;-38
2023/10/24 02:16:06;;;;;;;16.47;9.23;;;;;;;;;;5000771;28;20289;-39
2023/10/24 02:18:31;;;;;;;16.00;8.93;;;;;;;;;;5001402;28;20281;-37
2023/10/24 02:20:56;;;;;;;18.60;10.07;;;;;;;;;;4999344;28;20030;-38
2023/10/24 02:23:22;;;;;;;15.67;9.73;;;;;;;;;;5004468;28;20283;-39
2023/10/24 02:25:47;;;;;;;18.30;9.93;;;;;;;;;;4993750;28;20638;-39
2023/10/24 02:28:12;;;;;;;24.30;10.87;;;;;;;;;;4999592;28;20348;-40
2023/10/24 02:30:38;;;;;;;16.13;9.50;;;;;;;;;;5003113;28;20276;-40
2023/10/24 02:33:03;;;;;;;19.67;10.20;;;;;;;;;;5001069;28;20056;-38
2023/10/24 02:35:28;;;;;;;18.43;9.87;;;;;;;;;;5003725;28;20583;-37
2023/10/24 02:37:54;;;;;;;16.40;9.93;;;;;;;;;;5001487;28;20363;-39
2023/10/24 02:40:19;;;;;;;114.03;56.83;;;;;;;;;;5000235;28;20061;-39
2023/10/24 02:42:44;;;;;;;30.27;17.37;;;;;;;;;;4993764;28;20018;-39
2023/10/24 02:45:10;;;;;;;20.55;11.35;;;;;;;;;;4984590;28;20763;-37
2023/10/24 02:47:35;;;;;;;16.08;10.20;;;;;;;;;;4992677;28;20033;-39
2023/10/24 02:50:00;;;;;;;18.50;10.60;;;;;;;;;;5002797;28;20144;-38
2023/10/24 02:52:28;;;;;;;18.08;9.85;;;;;;;;;;5002860;28;20609;-39
2023/10/24 02:54:53;;;;;;;16.08;8.30;;;;;;;;;;4994914;28;20041;-39
2023/10/24 02:57:19;;;;;;;22.38;9.65;;;;;;;;;;5002548;28;20026;-39
2023/10/24 02:59:45;;;;;;;14.82;9.02;;;;;;;;;;4999851;28;20429;-38
2023/10/24 03:02:10;;;;;;;14.65;8.98;;;;;;;;;;4998613;28;20018;-39
2023/10/24 03:04:35;;;;;;;26.50;15.00;;;;;;;;;;5001808;28;20026;-39
2023/10/24 03:07:01;;;;;;;22.13;12.23;;;;;;;;;;4999694;28;20409;-38
2023/10/24 03:09:26;;;;;;;18.83;10.63;;;;;;;;;;5004116;28;20022;-39
2023/10/24 03:11:51;;;;;;;17.20;10.70;;;;;;;;;;5001389;28;20019;-39
2023/10/24 03:14:16;;;;;;;17.52;9.85;;;;;;;;;;5004329;28;20352;-41
2023/10/24 03:16:42;;;;;;;17.70;10.53;;;;;;;;;;4996028;28;20080;-39
2023/10/24 03:19:07;;;;;;;12.97;6.33;;;;;;;;;;5003394;28;20284;-38
2023/10/24 03:21:32;;;;;;;15.53;9.33;;;;;;;;;;5004625;28;20786;-39
2023/10/24 03:23:57;;;;;;;19.67;9.37;;;;;;;;;;4987074;28;20331;-40
2023/10/24 03:26:23;;;;;;;10.00;6.72;;;;;;;;;;5004763;28;20272;-39
2023/10/24 03:28:48;;;;;;;17.73;11.33;;;;;;;;;;5005766;28;20382;-39
2023/10/24 03:31:13;;;;;;;26.55;12.48;;;;;;;;;;5003763;28;20304;-39
2023/10/24 03:33:39;;;;;;;21.93;11.17;;;;;;;;;;4994572;28;20041;-40
2023/10/24 03:36:04;;;;;;;16.13;10.20;;;;;;;;;;5003357;28;20779;-38
2023/10/24 03:38:30;;;;;;;18.13;10.88;;;;;;;;;;5005932;28;20026;-38
2023/10/24 03:40:55;;;;;;;19.60;11.05;;;;;;;;;;4989928;28;20034;-40
2023/10/24 03:43:21;;;;;;;16.05;10.52;;;;;;;;;;5010831;28;20022;-39
2023/10/24 03:45:47;;;;;;;19.27;10.68;;;;;;;;;;5006376;28;20025;-37
2023/10/24 03:48:12;;;;;;;18.67;10.77;;;;;;;;;;5009416;28;20484;-40
2023/10/24 03:50:38;;;;;;;19.83;11.05;;;;;;;;;;5008303;28;20022;-40
2023/10/24 03:53:04;;;;;;;18.30;10.75;;;;;;;;;;5003469;28;20526;-40
2023/10/24 03:55:30;;;;;;;15.80;10.60;;;;;;;;;;5009163;28;20046;-39
2023/10/24 03:57:56;;;;;;;21.25;11.38;;;;;;;;;;5007105;28;20027;-37
2023/10/24 04:00:22;;;;;;;26.92;15.75;;;;;;;;;;5003609;28;20022;-40
2023/10/24 04:02:50;;;;;;;37.55;23.48;;;;;;;;;;5014047;28;20024;-38
2023/10/24 04:05:15;;;;;;;89.68;58.33;;;;;;;;;;5006442;28;20024;-40
2023/10/24 04:07:40;;;;;;;83.43;55.00;;;;;;;;;;5007809;28;20034;-39
2023/10/24 04:10:07;;;;;;;99.57;64.43;;;;;;;;;;5005039;28;20336;-38
2023/10/24 04:12:32;;;;;;;84.70;54.08;;;;;;;;;;5004776;28;20273;-40
2023/10/24 04:14:58;;;;;;;61.33;38.50;;;;;;;;;;5005300;28;20017;-39
2023/10/24 04:17:23;;;;;;;58.47;34.67;;;;;;;;;;5007038;28;20044;-39
2023/10/24 04:19:48;;;;;;;71.97;43.23;;;;;;;;;;4994526;28;20788;-38
2023/10/24 04:22:14;;;;;;;86.10;44.70;;;;;;;;;;5003626;28;20348;-37
2023/10/24 04:24:39;;;;;;;71.10;42.17;;;;;;;;;;5001506;28;20265;-38
2023/10/24 04:27:07;;;;;;;72.57;44.33;;;;;;;;;;5004816;28;20152;-39
2023/10/24 04:29:32;;;;;;;69.50;42.03;;;;;;;;;;4980016;28;20276;-37
2023/10/24 04:31:58;;;;;;;64.97;39.13;;;;;;;;;;5000984;28;20026;-39
2023/10/24 04:34:23;;;;;;;58.40;34.05;;;;;;;;;;5006245;28;20207;-39
2023/10/24 04:36:49;;;;;;;50.38;30.45;;;;;;;;;;5004195;28;20040;-38
2023/10/24 04:39:15;;;;;;;52.92;31.95;;;;;;;;;;5004158;28;20113;-38
2023/10/24 04:41:40;;;;;;;50.60;31.43;;;;;;;;;;5004965;28;20026;-39
2023/10/24 04:44:05;;;;;;;57.93;35.17;;;;;;;;;;4988034;28;20641;-39
2023/10/24 04:46:31;;;;;;;58.38;35.72;;;;;;;;;;4998424;28;20323;-38
2023/10/24 04:48:56;;;;;;;49.92;30.10;;;;;;;;;;5000809;28;20039;-37
2023/10/24 04:51:22;;;;;;;49.13;29.13;;;;;;;;;;4994937;28;20100;-40
2023/10/24 04:53:47;;;;;;;51.77;28.83;;;;;;;;;;5006608;28;20359;-38
2023/10/24 04:56:12;;;;;;;32.47;17.70;;;;;;;;;;5002740;28;20288;-37
2023/10/24 04:58:37;;;;;;;45.07;26.17;;;;;;;;;;5002696;28;20296;-40
2023/10/24 05:01:03;;;;;;;35.03;20.07;;;;;;;;;;5004490;28;20280;-39
2023/10/24 05:03:28;;;;;;;28.13;17.63;;;;;;;;;;4990894;28;20276;-38
2023/10/24 05:05:53;;;;;;;27.60;15.87;;;;;;;;;;5001359;28;20099;-37
2023/10/24 05:08:18;;;;;;;28.97;16.67;;;;;;;;;;5000558;28;20311;-39
2023/10/24 05:10:44;;;;;;;29.80;13.93;;;;;;;;;;5006565;28;20638;-39
2023/10/24 05:13:09;;;;;;;26.43;14.53;;;;;;;;;;5007480;28;20269;-39
2023/10/24 05:15:34;;;;;;;24.50;13.43;;;;;;;;;;5004362;28;20285;-38
2023/10/24 05:17:59;;;;;;;39.92;15.32;;;;;;;;;;5009758;28;20660;-39
2023/10/24 05:20:25;;;;;;;29.43;13.00;;;;;;;;;;5007326;28;20079;-38
2023/10/24 05:22:50;;;;;;;28.10;13.93;;;;;;;;;;5003075;28;20368;-39
2023/10/24 05:25:16;;;;;;;26.57;14.20;;;;;;;;;;4996804;28;20265;-40
2023/10/24 05:27:42;;;;;;;28.40;14.30;;;;;;;;;;4999596;28;20356;-40
2023/10/24 05:30:07;;;;;;;29.15;15.68;;;;;;;;;;4980637;28;20014;-40
2023/10/24 05:32:33;;;;;;;24.38;14.75;;;;;;;;;;5006294;28;20037;-38
2023/10/24 05:34:58;;;;;;;37.85;18.30;;;;;;;;;;5000726;28;20037;-38
2023/10/24 05:37:24;;;;;;;25.60;14.97;;;;;;;;;;5001239;28;20056;-40
2023/10/24 05:39:49;;;;;;;29.88;14.48;;;;;;;;;;5003426;28;20265;-39
2023/10/24 05:42:14;;;;;;;29.43;15.40;;;;;;;;;;5009013;28;20480;-39
2023/10/24 05:44:40;;;;;;;25.58;15.30;;;;;;;;;;4995713;28;20304;-39
2023/10/24 05:47:05;;;;;;;32.17;16.03;;;;;;;;;;5006546;28;20182;-40
2023/10/24 05:49:31;;;;;;;33.17;15.75;;;;;;;;;;4991721;28;20284;-40
2023/10/24 05:51:57;;;;;;;32.00;15.05;;;;;;;;;;5000498;28;20053;-39
2023/10/24 05:54:22;;;;;;;30.35;16.05;;;;;;;;;;4999746;28;20021;-40
2023/10/24 05:56:47;;;;;;;33.17;15.82;;;;;;;;;;5005911;28;20092;-37
2023/10/24 05:59:13;;;;;;;32.45;16.80;;;;;;;;;;5004139;28;20393;-38
2023/10/24 06:01:38;;;;;;;29.40;15.48;;;;;;;;;;5004825;28;20026;-39
2023/10/24 06:04:03;;;;;;;32.23;16.07;;;;;;;;;;5003667;28;20108;-40
2023/10/24 06:06:29;;;;;;;27.85;15.95;;;;;;;;;;5007823;28;20287;-38
2023/10/24 06:08:54;;;;;;;29.08;15.00;;;;;;;;;;5004825;28;20037;-38
2023/10/24 06:11:19;;;;;;;24.80;14.47;;;;;;;;;;5003047;28;20037;-40
2023/10/24 06:13:44;;;;;;;34.30;16.63;;;;;;;;;;5007845;28;20797;-39
2023/10/24 06:16:11;;;;;;;26.23;15.70;;;;;;;;;;5003361;28;20112;-39
2023/10/24 06:18:36;;;;;;;30.15;15.70;;;;;;;;;;4998690;28;20295;-39
2023/10/24 06:21:05;;;;;;;32.20;16.15;;;;;;;;;;5002925;28;20532;-39
2023/10/24 06:23:31;;;;;;;28.00;14.90;;;;;;;;;;5007439;28;20123;-40
2023/10/24 06:25:56;;;;;;;30.55;16.48;;;;;;;;;;5005165;28;20544;-38
2023/10/24 06:28:22;;;;;;;28.63;14.77;;;;;;;;;;5010683;28;20034;-39
2023/10/24 06:30:47;;;;;;;29.33;15.40;;;;;;;;;;4997756;28;20030;-37
2023/10/24 06:33:12;;;;;;;34.30;15.90;;;;;;;;;;4992861;28;20026;-40
2023/10/24 06:35:38;;;;;;;28.10;16.10;;;;;;;;;;5002389;28;20277;-39
2023/10/24 06:38:03;;;;;;;32.67;16.23;;;;;;;;;;4986962;28;20275;-39
2023/10/24 06:40:28;;;;;;;29.13;16.63;;;;;;;;;;5001819;28;20108;-37
2023/10/24 06:42:54;;;;;;;26.35;15.27;;;;;;;;;;5000491;28;20080;-38
2023/10/24 06:45:19;;;;;;;25.40;14.97;;;;;;;;;;4988863;28;20022;-40
2023/10/24 06:47:44;;;;;;;32.53;17.73;;;;;;;;;;4985767;28;20333;-39
2023/10/24 06:50:10;;;;;;;30.17;15.70;;;;;;;;;;5006223;28;20284;-40
2023/10/24 06:52:36;;;;;;;31.45;16.45;;;;;;;;;;5006776;28;20615;-40
2023/10/24 06:55:01;;;;;;;31.10;17.45;;;;;;;;;;5005042;28;20597;-40
2023/10/24 06:57:26;;;;;;;27.48;16.05;;;;;;;;;;5008612;28;20057;-39
2023/10/24 06:59:52;;;;;;;29.92;18.88;;;;;;;;;;4997094;28;20451;-39
2023/10/24 07:02:17;;;;;;;34.03;17.90;;;;;;;;;;5006571;28;20029;-39
2023/10/24 07:04:43;;;;;;;37.47;17.90;;;;;;;;;;4999305;28;20455;-38
2023/10/24 07:07:08;;;;;;;29.95;16.20;;;;;;;;;;5006869;28;20578;-38
2023/10/24 07:09:33;;;;;;;29.23;16.98;;;;;;;;;;5011354;28;20029;-39
2023/10/24 07:11:59;;;;;;;31.83;15.73;;;;;;;;;;5009586;28;20451;-38
2023/10/24 07:14:24;;;;;;;33.13;16.75;;;;;;;;;;5010197;28;20044;-39
2023/10/24 07:16:51;;;;;;;29.10;17.27;;;;;;;;;;4999960;28;20022;-38
2023/10/24 07:19:16;;;;;;;30.92;17.75;;;;;;;;;;5007223;28;20045;-38
2023/10/24 07:21:42;;;;;;;32.05;15.25;;;;;;;;;;5002562;28;20093;-38
2023/10/24 07:24:07;;;;;;;34.53;17.05;;;;;;;;;;5007032;28;20091;-39
2023/10/24 07:26:32;;;;;;;32.08;16.40;;;;;;;;;;5007538;28;23073;-38
2023/10/24 07:28:58;;;;;;;34.53;16.30;;;;;;;;;;5002733;28;20045;-38
2023/10/24 07:31:23;;;;;;;28.83;16.00;;;;;;;;;;5005938;28;20509;-41
2023/10/24 07:33:49;;;;;;;34.65;16.77;;;;;;;;;;4995440;28;20036;-40
2023/10/24 07:36:14;;;;;;;31.60;15.65;;;;;;;;;;5008606;28;20562;-40
2023/10/24 07:38:40;;;;;;;32.35;16.20;;;;;;;;;;5011533;28;20043;-38
2023/10/24 07:41:06;;;;;;;30.83;16.55;;;;;;;;;;5003232;28;20611;-40
2023/10/24 07:43:31;;;;;;;24.27;15.13;;;;;;;;;;5002364;28;20022;-40
2023/10/24 07:45:57;;;;;;;19.38;10.65;;;;;;;;;;5006775;28;20358;-41
2023/10/24 07:48:23;;;;;;;27.73;15.23;;;;;;;;;;5009614;28;20057;-38
2023/10/24 07:50:52;;;;;;;28.17;16.30;;;;;;;;;;5001026;28;20040;-40
2023/10/24 07:53:18;;;;;;;27.77;15.30;;;;;;;;;;5007702;28;20116;-41
2023/10/24 07:55:43;;;;;;;27.52;15.18;;;;;;;;;;5003790;28;20377;-39
2023/10/24 07:58:08;;;;;;;29.63;16.80;;;;;;;;;;5006783;28;20044;-39
2023/10/24 08:00:34;;;;;;;26.73;14.73;;;;;;;;;;4985725;28;20032;-39
2023/10/24 08:02:59;;;;;;;27.63;15.25;;;;;;;;;;5007231;28;20323;-40
2023/10/24 08:05:24;;;;;;;25.33;15.70;;;;;;;;;;5007199;28;20097;-41
2023/10/24 08:07:50;;;;;;;45.53;21.23;;;;;;;;;;5007654;28;20260;-39
2023/10/24 08:10:16;;;;;;;39.60;20.70;;;;;;;;;;5009655;28;20024;-39
2023/10/24 08:12:41;;;;;;;31.90;16.35;;;;;;;;;;5011186;28;20905;-38
2023/10/24 08:15:06;;;;;;;25.63;15.63;;;;;;;;;;5007945;28;20029;-39
2023/10/24 08:17:32;;;;;;;23.85;13.77;;;;;;;;;;5009183;28;20284;-39
2023/10/24 08:19:57;;;;;;;33.17;16.00;;;;;;;;;;4999462;28;20388;-40
2023/10/24 08:22:22;;;;;;;24.87;13.70;;;;;;;;;;5011014;28;20362;-39
2023/10/24 08:24:48;;;;;;;28.37;14.47;;;;;;;;;;5006217;28;20281;-38
2023/10/24 08:27:14;;;;;;;29.45;15.40;;;;;;;;;;5006343;28;20276;-38
2023/10/24 08:29:39;;;;;;;21.02;14.00;;;;;;;;;;5010163;28;20033;-39
2023/10/24 08:32:04;;;;;;;29.27;16.95;;;;;;;;;;5011925;28;20033;-39
2023/10/24 08:34:30;;;;;;;33.70;17.25;;;;;;;;;;5013182;28;20561;-39
2023/10/24 08:36:56;;;;;;;27.33;14.93;;;;;;;;;;5009359;28;20038;-39
2023/10/24 08:39:23;;;;;;;26.00;15.43;;;;;;;;;;5002707;28;20024;-40
2023/10/24 08:41:50;;;;;;;25.67;14.75;;;;;;;;;;5009373;28;20026;-37
2023/10/24 08:44:17;;;;;;;34.15;15.40;;;;;;;;;;5007353;28;20018;-39
2023/10/24 08:46:42;;;;;;;30.00;16.60;;;;;;;;;;5005027;28;20110;-40
2023/10/24 08:49:07;;;;;;;24.95;14.48;;;;;;;;;;5007622;28;20048;-40
2023/10/24 08:51:33;;;;;;;50.17;25.38;;;;;;;;;;5006720;28;20421;-39
2023/10/24 08:53:58;;;;;;;26.77;16.10;;;;;;;;;;5007140;28;20030;-39
2023/10/24 08:56:24;;;;;;;28.73;14.93;;;;;;;;;;5001185;28;20284;-39
2023/10/24 08:58:50;;;;;;;35.80;19.35;;;;;;;;;;5002759;28;20405;-39
2023/10/24 09:01:15;;;;;;;33.70;17.92;;;;;;;;;;5002040;28;20030;-38
2023/10/24 09:03:41;;;;;;;32.80;16.23;;;;;;;;;;5002682;28;20041;-38
2023/10/24 09:06:07;;;;;;;30.55;14.98;;;;;;;;;;5004898;28;20188;-39
2023/10/24 09:08:32;;;;;;;32.63;15.48;;;;;;;;;;5000987;28;20496;-40
2023/10/24 09:10:58;;;;;;;26.00;15.63;;;;;;;;;;5003962;28;20109;-39
2023/10/24 09:13:23;;;;;;;34.73;15.83;;;;;;;;;;5003843;28;20026;-39
2023/10/24 09:16:09;;;;;;;31.45;15.05;;;;;;;;;;5003090;28;20296;-37
2023/10/24 09:18:36;;;;;;;29.77;15.55;;;;;;;;;;5004379;28;20026;-38
2023/10/24 09:21:01;;;;;;;27.35;14.65;;;;;;;;;;4998649;28;20048;-39
2023/10/24 09:23:26;;;;;;;27.00;14.70;;;;;;;;;;5007808;28;20037;-40
2023/10/24 09:25:53;;;;;;;31.00;15.67;;;;;;;;;;4988637;28;20699;-40
2023/10/24 09:28:19;;;;;;;27.65;15.40;;;;;;;;;;5006814;28;20293;-40
2023/10/24 09:31:06;;;;;;;28.85;15.90;;;;;;;;;;5096914;27;20455;-39
2023/10/24 09:33:33;;;;;;;30.08;15.15;;;;;;;;;;5087443;28;20035;-40
2023/10/24 09:35:58;;;;;;;33.85;14.70;;;;;;;;;;5083721;28;20103;-40
2023/10/24 09:38:24;;;;;;;30.20;14.97;;;;;;;;;;5080586;28;20149;-40
2023/10/24 09:40:50;;;;;;;32.03;15.05;;;;;;;;;;5081001;28;22316;-40
2023/10/24 09:43:18;;;;;;;25.27;14.60;;;;;;;;;;5082091;28;20016;-39
2023/10/24 09:45:44;;;;;;;28.75;14.80;;;;;;;;;;5083108;28;20025;-40
2023/10/24 09:48:10;;;;;;;29.02;14.38;;;;;;;;;;5078042;28;20093;-38
2023/10/24 09:50:37;;;;;;;23.33;13.32;;;;;;;;;;5079345;28;20032;-38
2023/10/24 09:53:02;;;;;;;28.20;14.52;;;;;;;;;;5081552;28;20028;-38
2023/10/24 09:55:27;;;;;;;24.00;13.43;;;;;;;;;;5074271;28;20024;-37
2023/10/24 09:57:53;;;;;;;32.20;14.87;;;;;;;;;;5080866;28;20492;-37
2023/10/24 10:00:20;;;;;;;29.83;14.05;;;;;;;;;;5082018;28;20270;-38
2023/10/24 10:02:46;;;;;;;30.30;13.90;;;;;;;;;;5075122;28;20031;-38
2023/10/24 10:05:14;;;;;;;26.85;13.88;;;;;;;;;;5085102;28;20020;-38
2023/10/24 10:07:40;;;;;;;45.53;21.70;;;;;;;;;;5081473;28;20562;-38
2023/10/24 10:10:06;;;;;;;37.55;17.98;;;;;;;;;;5078305;28;20634;-38
2023/10/24 10:12:32;;;;;;;34.15;16.48;;;;;;;;;;5083253;28;20133;-39
2023/10/24 10:15:00;;;;;;;34.67;16.67;;;;;;;;;;5082031;28;20016;-38
2023/10/24 10:17:31;;;;;;;28.48;13.73;;;;;;;;;;5083864;28;20037;-38
2023/10/24 10:19:56;;;;;;;27.75;13.88;;;;;;;;;;5071029;28;20107;-37
2023/10/24 10:22:30;;;;;;;28.87;12.53;;;;;;;;;;5080421;28;20094;-37
2023/10/24 10:24:56;;;;;;;27.15;14.02;;;;;;;;;;5078573;28;20279;-38
2023/10/24 10:27:38;;;;;;;27.63;13.47;;;;;;;;;;5081594;28;20122;-38
2023/10/24 10:30:03;;;;;;;;;;;;;;;;;;5079638;28;20029;-38
2023/10/24 10:32:37;;;;;;;26.83;13.37;;;;;;;;;;5072508;28;19919;-38
2023/10/24 10:35:02;;;;;;;38.53;18.38;;;;;;;;;;5073920;28;20024;-38
2023/10/24 10:37:32;;;;;;;29.52;14.38;;;;;;;;;;5075475;28;20095;-39
2023/10/24 10:40:23;;;;;;;25.27;14.32;;;;;;;;;;5077323;28;20115;-38
2023/10/24 10:42:49;;;;;;;28.90;13.75;;;;;;;;;;5062291;28;20032;-38
2023/10/24 10:45:28;;;;;;;27.08;14.38;;;;;;;;;;5063852;28;20020;-39
2023/10/24 10:47:55;;;;;;;27.30;13.18;;;;;;;;;;5063423;28;20327;-38
2023/10/24 10:50:27;;;;;;;27.55;14.00;;;;;;;;;;5067039;28;20029;-38
2023/10/24 10:53:02;;;;;;;21.85;11.65;;;;;;;;;;5057165;28;20017;-39
2023/10/24 10:55:30;;;;;;;27.83;13.32;;;;;;;;;;5067814;28;20020;-38
2023/10/24 10:58:11;;;;;;;24.63;11.88;;;;;;;;;;5064341;28;20099;-39
2023/10/24 11:01:03;;;;;;;23.10;12.02;;;;;;;;;;5058963;28;20044;-37
2023/10/24 11:03:28;;;;;;;26.27;11.75;;;;;;;;;;5038222;28;20101;-37
2023/10/24 11:05:53;;;;;;;19.60;11.20;;;;;;;;;;5064609;28;20656;-37
2023/10/24 11:08:22;;;;;;;25.38;11.90;;;;;;;;;;5068481;28;20270;-37
2023/10/24 11:10:52;;;;;;;23.85;13.30;;;;;;;;;;5066454;28;20029;-37
2023/10/24 11:13:38;;;;;;;36.28;18.33;;;;;;;;;;5053845;28;20021;-37
2023/10/24 11:16:05;;;;;;;30.08;15.07;;;;;;;;;;5067321;28;20083;-38
2023/10/24 11:18:31;;;;;;;23.27;13.15;;;;;;;;;;5066383;28;20036;-38
2023/10/24 11:20:57;;;;;;;25.38;11.77;;;;;;;;;;5069268;28;20021;-38
2023/10/24 11:23:22;;;;;;;21.60;12.05;;;;;;;;;;5072791;28;20035;-38
2023/10/24 11:25:48;;;;;;;24.27;13.23;;;;;;;;;;5068568;28;20383;-38
2023/10/24 11:28:14;;;;;;;24.45;13.15;;;;;;;;;;5064339;28;20020;-38
2023/10/24 11:30:40;;;;;;;18.25;11.18;;;;;;;;;;5059248;28;20020;-38
2023/10/24 11:33:05;;;;;;;23.73;12.03;;;;;;;;;;5061511;28;20147;-38
2023/10/24 11:35:30;;;;;;;29.03;12.93;;;;;;;;;;5064888;28;20263;-43
2023/10/24 11:37:56;;;;;;;24.17;12.23;;;;;;;;;;5067631;28;20274;-39
2023/10/24 11:40:21;;;;;;;21.45;12.32;;;;;;;;;;5068011;28;20279;-39
2023/10/24 11:42:46;;;;;;;23.50;11.70;;;;;;;;;;5068297;28;20032;-39
2023/10/24 11:45:11;;;;;;;23.30;10.37;;;;;;;;;;5067558;28;20286;-39
2023/10/24 11:47:37;;;;;;;23.27;10.35;;;;;;;;;;5067102;28;20363;-39
2023/10/24 11:50:02;;;;;;;19.33;10.80;;;;;;;;;;5065109;28;20020;-40
2023/10/24 11:52:27;;;;;;;21.88;11.05;;;;;;;;;;5061034;28;20028;-40
2023/10/24 11:54:53;;;;;;;19.17;10.60;;;;;;;;;;5061879;28;20106;-39
2023/10/24 11:57:19;;;;;;;19.85;12.05;;;;;;;;;;5063205;28;20266;-37
2023/10/24 11:59:45;;;;;;;20.88;11.27;;;;;;;;;;5058870;28;20024;-38
2023/10/24 12:02:11;;;;;;;21.15;11.35;;;;;;;;;;5064666;28;20066;-40
2023/10/24 12:04:36;;;;;;;22.07;10.57;;;;;;;;;;5056596;28;20656;-38
2023/10/24 12:07:07;;;;;;;18.93;11.13;;;;;;;;;;5063682;28;20275;-39
2023/10/24 12:09:33;;;;;;;17.60;10.68;;;;;;;;;;5063140;28;20291;-39
2023/10/24 12:12:00;;;;;;;18.08;10.50;;;;;;;;;;5064870;28;20085;-38
2023/10/24 12:14:26;;;;;;;17.70;10.27;;;;;;;;;;5064188;28;20027;-39
2023/10/24 12:16:51;;;;;;;21.17;11.50;;;;;;;;;;5074830;28;20020;-38
2023/10/24 12:19:16;;;;;;;22.27;11.83;;;;;;;;;;5064462;28;20032;-42
2023/10/24 12:21:42;;;;;;;24.42;11.05;;;;;;;;;;5060065;28;20373;-40
2023/10/24 12:24:07;;;;;;;26.65;11.77;;;;;;;;;;5059430;28;20040;-39
2023/10/24 12:26:34;;;;;;;29.67;12.73;;;;;;;;;;5059794;28;20021;-38
2023/10/24 12:29:00;;;;;;;27.35;11.88;;;;;;;;;;5053347;28;20055;-38
2023/10/24 12:31:25;;;;;;;20.50;11.95;;;;;;;;;;5060595;28;20166;-36
2023/10/24 12:33:50;;;;;;;29.13;14.13;;;;;;;;;;5067141;28;20031;-38
2023/10/24 12:36:16;;;;;;;29.25;12.57;;;;;;;;;;5066646;28;20493;-36
2023/10/24 12:38:42;;;;;;;23.23;13.20;;;;;;;;;;5065054;28;20029;-36
2023/10/24 12:41:07;;;;;;;24.23;14.33;;;;;;;;;;5061969;28;20436;-38
2023/10/24 12:43:33;;;;;;;21.90;12.90;;;;;;;;;;5066249;28;20275;-37
2023/10/24 12:45:58;;;;;;;22.25;11.70;;;;;;;;;;5064694;28;20286;-37
2023/10/24 12:48:24;;;;;;;26.35;11.95;;;;;;;;;;5066133;28;20020;-37
2023/10/24 12:50:49;;;;;;;23.17;11.87;;;;;;;;;;5067185;28;20028;-40
2023/10/24 12:53:14;;;;;;;21.98;12.63;;;;;;;;;;5057421;28;20274;-37
2023/10/24 12:55:40;;;;;;;38.80;12.40;;;;;;;;;;5064734;28;20036;-41
2023/10/24 12:58:05;;;;;;;26.33;12.23;;;;;;;;;;5059891;28;20092;-41
2023/10/24 13:00:31;;;;;;;27.63;12.30;;;;;;;;;;5067328;28;20055;-39
2023/10/24 13:02:57;;;;;;;26.58;12.50;;;;;;;;;;5066916;28;20115;-37
2023/10/24 13:05:22;;;;;;;23.15;11.95;;;;;;;;;;5055986;28;20024;-37
2023/10/24 13:07:47;;;;;;;24.95;12.48;;;;;;;;;;5062304;28;20490;-40
2023/10/24 13:10:14;;;;;;;23.48;11.55;;;;;;;;;;5062122;28;20100;-39
2023/10/24 13:12:40;;;;;;;29.45;12.05;;;;;;;;;;5065039;28;20017;-39
2023/10/24 13:15:05;;;;;;;19.52;11.75;;;;;;;;;;5063260;28;20092;-38
2023/10/24 13:17:30;;;;;;;25.95;12.52;;;;;;;;;;5065235;28;20040;-38
2023/10/24 13:19:56;;;;;;;20.23;11.70;;;;;;;;;;5062945;28;20035;-39
2023/10/24 13:22:21;;;;;;;23.63;12.32;;;;;;;;;;5057859;28;20052;-39
2023/10/24 13:24:47;;;;;;;28.87;13.70;;;;;;;;;;5066164;28;20032;-39
2023/10/24 13:27:12;;;;;;;24.73;13.47;;;;;;;;;;5047512;28;20275;-39
2023/10/24 13:29:37;;;;;;;24.05;12.48;;;;;;;;;;5064205;28;20503;-39
2023/10/24 13:32:03;;;;;;;21.38;12.70;;;;;;;;;;5062990;28;20029;-39
2023/10/24 13:34:28;;;;;;;25.63;12.73;;;;;;;;;;5063718;28;20028;-39
2023/10/24 13:36:54;;;;;;;28.10;13.50;;;;;;;;;;5068633;28;20021;-39
2023/10/24 13:39:19;;;;;;;27.67;16.15;;;;;;;;;;5062865;28;20023;-40
2023/10/24 13:41:44;;;;;;;26.93;14.47;;;;;;;;;;5062900;28;20462;-39
2023/10/24 13:44:10;;;;;;;29.38;16.75;;;;;;;;;;5062553;28;20285;-39
2023/10/24 13:46:35;;;;;;;28.48;15.52;;;;;;;;;;5066229;28;20028;-40
2023/10/24 13:49:00;;;;;;;26.30;14.77;;;;;;;;;;5063411;28;20455;-40
2023/10/24 13:51:26;;;;;;;24.92;13.45;;;;;;;;;;5064500;28;20438;-38
2023/10/24 13:53:51;;;;;;;22.55;12.45;;;;;;;;;;5059600;28;20547;-40
2023/10/24 13:56:16;;;;;;;24.80;13.38;;;;;;;;;;5063575;28;20025;-38
2023/10/24 13:58:42;;;;;;;28.23;12.40;;;;;;;;;;5065113;28;20434;-40
2023/10/24 14:01:07;;;;;;;27.05;13.43;;;;;;;;;;5066995;28;20029;-39
2023/10/24 14:03:33;;;;;;;25.77;13.67;;;;;;;;;;5067037;28;20028;-41
2023/10/24 14:05:58;;;;;;;29.17;13.85;;;;;;;;;;5059146;28;20350;-40
2023/10/24 14:08:24;;;;;;;31.08;16.65;;;;;;;;;;5064639;28;20028;-40
2023/10/24 14:10:50;;;;;;;25.90;16.25;;;;;;;;;;5061210;28;20036;-39